sensor_id;sensor_type;location;lat;lon;timestamp;temperature;humidity
9975;DHT22;5028;50.974;4.968;2023-06-19T00:02:27;19.60;99.90
9975;DHT22;5028;50.974;4.968;2023-06-19T00:04:56;19.60;99.90
9975;DHT22;5028;50.974;4.968;2023-06-19T00:07:25;19.50;99.90
9975;DHT22;5028;50.974;4.968;2023-06-19T00:09:54;19.60;99.90
9975;DHT22;5028;50.974;4.968;2023-06-19T00:12:23;19.50;99.90
9975;DHT22;5028;50.974;4.968;2023-06-19T00:14:52;19.50;99.90
9975;DHT22;5028;50.974;4.968;2023-06-19T00:17:20;19.40;99.90
9975;DHT22;5028;50.974;4.968;2023-06-19T00:19:48;19.40;99.90
9975;DHT22;5028;50.974;4.968;2023-06-19T00:22:18;19.40;99.90
9975;DHT22;5028;50.974;4.968;2023-06-19T00:24:48;19.30;99.90
9975;DHT22;5028;50.974;4.968;2023-06-19T00:27:16;19.20;99.90
9975;DHT22;5028;50.974;4.968;2023-06-19T00:29:46;19.20;99.90
9975;DHT22;5028;50.974;4.968;2023-06-19T00:32:14;19.20;99.90
9975;DHT22;5028;50.974;4.968;2023-06-19T00:34:44;19.20;99.90
9975;DHT22;5028;50.974;4.968;2023-06-19T00:37:12;19.20;99.90
9975;DHT22;5028;50.974;4.968;2023-06-19T00:39:43;19.20;99.90
9975;DHT22;5028;50.974;4.968;2023-06-19T00:42:12;19.10;99.90
9975;DHT22;5028;50.974;4.968;2023-06-19T00:44:41;19.10;99.90
9975;DHT22;5028;50.974;4.968;2023-06-19T00:47:10;19.10;99.90
9975;DHT22;5028;50.974;4.968;2023-06-19T00:49:39;19.00;99.90
9975;DHT22;5028;50.974;4.968;2023-06-19T00:52:19;19.00;99.90
9975;DHT22;5028;50.974;4.968;2023-06-19T00:54:47;19.00;99.90
9975;DHT22;5028;50.974;4.968;2023-06-19T00:57:18;19.00;99.90
9975;DHT22;5028;50.974;4.968;2023-06-19T00:59:47;19.00;99.90
9975;DHT22;5028;50.974;4.968;2023-06-19T01:02:16;18.90;99.90
9975;DHT22;5028;50.974;4.968;2023-06-19T01:04:45;18.90;99.90
9975;DHT22;5028;50.974;4.968;2023-06-19T01:07:15;18.90;99.90
9975;DHT22;5028;50.974;4.968;2023-06-19T01:09:49;18.90;99.90
9975;DHT22;5028;50.974;4.968;2023-06-19T01:12:24;18.90;99.90
9975;DHT22;5028;50.974;4.968;2023-06-19T01:14:58;18.90;99.90
9975;DHT22;5028;50.974;4.968;2023-06-19T01:17:27;18.90;99.90
9975;DHT22;5028;50.974;4.968;2023-06-19T01:19:57;18.90;99.90
9975;DHT22;5028;50.974;4.968;2023-06-19T01:22:27;18.80;99.90
9975;DHT22;5028;50.974;4.968;2023-06-19T01:24:56;18.80;99.90
9975;DHT22;5028;50.974;4.968;2023-06-19T01:27:25;18.70;99.90
9975;DHT22;5028;50.974;4.968;2023-06-19T01:29:57;18.60;99.90
9975;DHT22;5028;50.974;4.968;2023-06-19T01:32:29;18.60;99.90
9975;DHT22;5028;50.974;4.968;2023-06-19T01:35:00;18.50;99.90
9975;DHT22;5028;50.974;4.968;2023-06-19T01:37:32;18.50;99.90
9975;DHT22;5028;50.974;4.968;2023-06-19T01:40:03;18.50;99.90
9975;DHT22;5028;50.974;4.968;2023-06-19T01:42:39;18.50;99.90
9975;DHT22;5028;50.974;4.968;2023-06-19T01:45:08;18.40;99.90
9975;DHT22;5028;50.974;4.968;2023-06-19T01:47:37;18.40;99.90
9975;DHT22;5028;50.974;4.968;2023-06-19T01:50:06;18.40;99.90
9975;DHT22;5028;50.974;4.968;2023-06-19T01:52:37;18.30;99.90
9975;DHT22;5028;50.974;4.968;2023-06-19T01:55:07;18.30;99.90
9975;DHT22;5028;50.974;4.968;2023-06-19T01:57:36;18.30;99.90
9975;DHT22;5028;50.974;4.968;2023-06-19T02:00:05;18.30;99.90
9975;DHT22;5028;50.974;4.968;2023-06-19T02:02:37;18.30;99.90
9975;DHT22;5028;50.974;4.968;2023-06-19T02:05:07;18.20;99.90
9975;DHT22;5028;50.974;4.968;2023-06-19T02:07:36;18.20;99.90
9975;DHT22;5028;50.974;4.968;2023-06-19T02:10:06;18.20;99.90
9975;DHT22;5028;50.974;4.968;2023-06-19T02:12:34;18.20;99.90
9975;DHT22;5028;50.974;4.968;2023-06-19T02:15:03;18.20;99.90
9975;DHT22;5028;50.974;4.968;2023-06-19T02:17:32;18.20;99.90
9975;DHT22;5028;50.974;4.968;2023-06-19T02:20:00;18.20;99.90
9975;DHT22;5028;50.974;4.968;2023-06-19T02:22:33;18.20;99.90
9975;DHT22;5028;50.974;4.968;2023-06-19T02:25:03;18.30;99.90
9975;DHT22;5028;50.974;4.968;2023-06-19T02:27:32;18.30;99.90
9975;DHT22;5028;50.974;4.968;2023-06-19T02:30:00;18.30;99.90
9975;DHT22;5028;50.974;4.968;2023-06-19T02:32:29;18.30;99.90
9975;DHT22;5028;50.974;4.968;2023-06-19T02:34:57;18.30;99.90
9975;DHT22;5028;50.974;4.968;2023-06-19T02:37:26;18.30;99.90
9975;DHT22;5028;50.974;4.968;2023-06-19T02:39:56;18.20;99.90
9975;DHT22;5028;50.974;4.968;2023-06-19T02:42:26;18.40;99.90
9975;DHT22;5028;50.974;4.968;2023-06-19T02:44:54;18.40;99.90
9975;DHT22;5028;50.974;4.968;2023-06-19T02:47:30;18.40;99.90
9975;DHT22;5028;50.974;4.968;2023-06-19T02:49:59;18.40;99.90
9975;DHT22;5028;50.974;4.968;2023-06-19T02:52:29;18.40;99.90
9975;DHT22;5028;50.974;4.968;2023-06-19T02:54:57;18.40;99.90
9975;DHT22;5028;50.974;4.968;2023-06-19T02:57:27;18.50;99.90
9975;DHT22;5028;50.974;4.968;2023-06-19T02:59:55;18.40;99.90
9975;DHT22;5028;50.974;4.968;2023-06-19T03:02:24;18.50;99.90
9975;DHT22;5028;50.974;4.968;2023-06-19T03:04:52;18.50;99.90
9975;DHT22;5028;50.974;4.968;2023-06-19T03:07:21;18.50;99.90
9975;DHT22;5028;50.974;4.968;2023-06-19T03:09:49;18.60;99.90
9975;DHT22;5028;50.974;4.968;2023-06-19T03:12:17;18.50;99.90
9975;DHT22;5028;50.974;4.968;2023-06-19T03:14:47;18.50;99.90
9975;DHT22;5028;50.974;4.968;2023-06-19T03:17:15;18.60;99.90
9975;DHT22;5028;50.974;4.968;2023-06-19T03:19:44;18.60;99.90
9975;DHT22;5028;50.974;4.968;2023-06-19T03:22:12;18.60;99.90
9975;DHT22;5028;50.974;4.968;2023-06-19T03:24:40;18.60;99.90
9975;DHT22;5028;50.974;4.968;2023-06-19T03:27:09;18.50;99.90
9975;DHT22;5028;50.974;4.968;2023-06-19T03:29:37;18.60;99.90
9975;DHT22;5028;50.974;4.968;2023-06-19T03:32:07;18.50;99.90
9975;DHT22;5028;50.974;4.968;2023-06-19T03:34:36;18.60;99.90
9975;DHT22;5028;50.974;4.968;2023-06-19T03:37:05;18.60;99.90
9975;DHT22;5028;50.974;4.968;2023-06-19T03:39:33;18.60;99.90
9975;DHT22;5028;50.974;4.968;2023-06-19T03:42:01;18.60;99.90
9975;DHT22;5028;50.974;4.968;2023-06-19T03:44:30;18.70;99.90
9975;DHT22;5028;50.974;4.968;2023-06-19T03:46:58;18.60;99.90
9975;DHT22;5028;50.974;4.968;2023-06-19T03:49:28;18.60;99.90
9975;DHT22;5028;50.974;4.968;2023-06-19T03:51:59;18.60;99.90
9975;DHT22;5028;50.974;4.968;2023-06-19T03:54:27;18.60;99.90
9975;DHT22;5028;50.974;4.968;2023-06-19T03:56:55;18.60;99.90
9975;DHT22;5028;50.974;4.968;2023-06-19T03:59:24;18.60;99.90
9975;DHT22;5028;50.974;4.968;2023-06-19T04:01:53;18.60;99.90
9975;DHT22;5028;50.974;4.968;2023-06-19T04:04:22;18.60;99.90
9975;DHT22;5028;50.974;4.968;2023-06-19T04:06:52;18.60;99.90
9975;DHT22;5028;50.974;4.968;2023-06-19T04:09:20;18.60;99.90
9975;DHT22;5028;50.974;4.968;2023-06-19T04:11:49;18.60;99.90
9975;DHT22;5028;50.974;4.968;2023-06-19T04:14:17;18.70;99.90
9975;DHT22;5028;50.974;4.968;2023-06-19T04:16:45;18.70;99.90
9975;DHT22;5028;50.974;4.968;2023-06-19T04:19:14;18.70;99.90
9975;DHT22;5028;50.974;4.968;2023-06-19T04:21:42;18.70;99.90
9975;DHT22;5028;50.974;4.968;2023-06-19T04:24:12;18.60;99.90
9975;DHT22;5028;50.974;4.968;2023-06-19T04:26:40;18.60;99.90
9975;DHT22;5028;50.974;4.968;2023-06-19T04:29:09;18.60;99.90
9975;DHT22;5028;50.974;4.968;2023-06-19T04:31:44;18.60;99.90
9975;DHT22;5028;50.974;4.968;2023-06-19T04:34:15;18.70;99.90
9975;DHT22;5028;50.974;4.968;2023-06-19T04:36:43;18.60;99.90
9975;DHT22;5028;50.974;4.968;2023-06-19T04:39:13;18.60;99.90
9975;DHT22;5028;50.974;4.968;2023-06-19T04:41:43;18.70;99.90
9975;DHT22;5028;50.974;4.968;2023-06-19T04:44:11;18.70;99.90
9975;DHT22;5028;50.974;4.968;2023-06-19T04:46:40;18.60;99.90
9975;DHT22;5028;50.974;4.968;2023-06-19T04:49:09;18.70;99.90
9975;DHT22;5028;50.974;4.968;2023-06-19T04:51:37;18.60;99.90
9975;DHT22;5028;50.974;4.968;2023-06-19T04:54:05;18.60;99.90
9975;DHT22;5028;50.974;4.968;2023-06-19T04:56:35;18.60;99.90
9975;DHT22;5028;50.974;4.968;2023-06-19T04:59:03;18.70;99.90
9975;DHT22;5028;50.974;4.968;2023-06-19T05:01:32;18.70;99.90
9975;DHT22;5028;50.974;4.968;2023-06-19T05:04:00;18.70;99.90
9975;DHT22;5028;50.974;4.968;2023-06-19T05:06:28;18.70;99.90
9975;DHT22;5028;50.974;4.968;2023-06-19T05:08:57;18.70;99.90
9975;DHT22;5028;50.974;4.968;2023-06-19T05:11:25;18.70;99.90
9975;DHT22;5028;50.974;4.968;2023-06-19T05:13:55;18.80;99.90
9975;DHT22;5028;50.974;4.968;2023-06-19T05:16:23;18.70;99.90
9975;DHT22;5028;50.974;4.968;2023-06-19T05:18:51;18.70;99.90
9975;DHT22;5028;50.974;4.968;2023-06-19T05:21:40;18.80;99.90
9975;DHT22;5028;50.974;4.968;2023-06-19T05:24:08;18.80;99.90
9975;DHT22;5028;50.974;4.968;2023-06-19T05:26:36;18.90;99.90
9975;DHT22;5028;50.974;4.968;2023-06-19T05:29:06;18.80;99.90
9975;DHT22;5028;50.974;4.968;2023-06-19T05:31:42;18.80;99.90
9975;DHT22;5028;50.974;4.968;2023-06-19T05:34:11;18.80;99.90
9975;DHT22;5028;50.974;4.968;2023-06-19T05:36:42;19.00;99.90
9975;DHT22;5028;50.974;4.968;2023-06-19T05:39:13;19.10;99.90
9975;DHT22;5028;50.974;4.968;2023-06-19T05:41:42;19.20;99.90
9975;DHT22;5028;50.974;4.968;2023-06-19T05:44:15;19.30;99.90
9975;DHT22;5028;50.974;4.968;2023-06-19T05:46:44;19.40;99.90
9975;DHT22;5028;50.974;4.968;2023-06-19T05:49:15;19.40;99.90
9975;DHT22;5028;50.974;4.968;2023-06-19T05:51:43;19.50;99.90
9975;DHT22;5028;50.974;4.968;2023-06-19T05:54:11;19.50;99.90
9975;DHT22;5028;50.974;4.968;2023-06-19T05:56:39;19.50;99.90
9975;DHT22;5028;50.974;4.968;2023-06-19T05:59:08;19.70;99.90
9975;DHT22;5028;50.974;4.968;2023-06-19T06:01:37;19.80;99.90
9975;DHT22;5028;50.974;4.968;2023-06-19T06:04:06;19.90;99.90
9975;DHT22;5028;50.974;4.968;2023-06-19T06:06:34;20.00;99.90
9975;DHT22;5028;50.974;4.968;2023-06-19T06:09:03;20.00;99.90
9975;DHT22;5028;50.974;4.968;2023-06-19T06:11:31;20.10;99.90
9975;DHT22;5028;50.974;4.968;2023-06-19T06:14:00;20.10;99.90
9975;DHT22;5028;50.974;4.968;2023-06-19T06:16:28;20.30;99.90
9975;DHT22;5028;50.974;4.968;2023-06-19T06:18:57;20.20;99.90
9975;DHT22;5028;50.974;4.968;2023-06-19T06:21:26;20.10;99.90
9975;DHT22;5028;50.974;4.968;2023-06-19T06:23:54;20.10;99.90
9975;DHT22;5028;50.974;4.968;2023-06-19T06:26:23;20.10;99.90
9975;DHT22;5028;50.974;4.968;2023-06-19T06:28:54;20.20;99.90
9975;DHT22;5028;50.974;4.968;2023-06-19T06:31:24;20.20;99.90
9975;DHT22;5028;50.974;4.968;2023-06-19T06:33:52;20.00;99.90
9975;DHT22;5028;50.974;4.968;2023-06-19T06:36:24;20.00;99.90
9975;DHT22;5028;50.974;4.968;2023-06-19T06:39:03;19.90;99.90
9975;DHT22;5028;50.974;4.968;2023-06-19T06:41:31;19.90;99.90
9975;DHT22;5028;50.974;4.968;2023-06-19T06:44:00;19.80;99.90
9975;DHT22;5028;50.974;4.968;2023-06-19T06:46:28;19.70;99.90
9975;DHT22;5028;50.974;4.968;2023-06-19T06:48:57;19.70;99.90
9975;DHT22;5028;50.974;4.968;2023-06-19T06:51:26;19.90;99.90
9975;DHT22;5028;50.974;4.968;2023-06-19T06:53:57;20.00;99.90
9975;DHT22;5028;50.974;4.968;2023-06-19T06:56:25;20.00;99.90
9975;DHT22;5028;50.974;4.968;2023-06-19T06:58:54;20.00;99.90
9975;DHT22;5028;50.974;4.968;2023-06-19T07:01:22;19.90;99.90
9975;DHT22;5028;50.974;4.968;2023-06-19T07:03:50;20.00;99.90
9975;DHT22;5028;50.974;4.968;2023-06-19T07:06:21;19.90;99.90
9975;DHT22;5028;50.974;4.968;2023-06-19T07:08:51;19.90;99.90
9975;DHT22;5028;50.974;4.968;2023-06-19T07:11:19;19.90;99.90
9975;DHT22;5028;50.974;4.968;2023-06-19T07:13:50;19.70;99.90
9975;DHT22;5028;50.974;4.968;2023-06-19T07:16:18;19.90;99.90
9975;DHT22;5028;50.974;4.968;2023-06-19T07:18:47;19.90;99.90
9975;DHT22;5028;50.974;4.968;2023-06-19T07:21:15;20.00;99.90
9975;DHT22;5028;50.974;4.968;2023-06-19T07:23:45;20.00;99.90
9975;DHT22;5028;50.974;4.968;2023-06-19T07:26:16;20.00;99.90
9975;DHT22;5028;50.974;4.968;2023-06-19T07:28:44;20.00;99.90
9975;DHT22;5028;50.974;4.968;2023-06-19T07:31:12;20.10;99.90
9975;DHT22;5028;50.974;4.968;2023-06-19T07:33:41;20.20;99.90
9975;DHT22;5028;50.974;4.968;2023-06-19T07:36:09;20.20;99.90
9975;DHT22;5028;50.974;4.968;2023-06-19T07:38:41;20.30;99.90
9975;DHT22;5028;50.974;4.968;2023-06-19T07:41:09;20.30;99.90
9975;DHT22;5028;50.974;4.968;2023-06-19T07:43:39;20.40;99.90
9975;DHT22;5028;50.974;4.968;2023-06-19T07:46:07;20.40;99.90
9975;DHT22;5028;50.974;4.968;2023-06-19T07:48:36;20.50;99.90
9975;DHT22;5028;50.974;4.968;2023-06-19T07:51:04;20.50;99.90
9975;DHT22;5028;50.974;4.968;2023-06-19T07:53:32;20.50;99.90
9975;DHT22;5028;50.974;4.968;2023-06-19T07:56:00;20.50;99.90
9975;DHT22;5028;50.974;4.968;2023-06-19T07:58:29;20.60;99.90
9975;DHT22;5028;50.974;4.968;2023-06-19T08:00:59;20.60;99.90
9975;DHT22;5028;50.974;4.968;2023-06-19T08:03:27;20.50;99.90
9975;DHT22;5028;50.974;4.968;2023-06-19T08:05:57;20.50;99.90
9975;DHT22;5028;50.974;4.968;2023-06-19T08:08:25;20.60;99.90
9975;DHT22;5028;50.974;4.968;2023-06-19T08:10:53;20.80;99.90
9975;DHT22;5028;50.974;4.968;2023-06-19T08:13:21;20.90;99.90
9975;DHT22;5028;50.974;4.968;2023-06-19T08:15:51;21.00;99.90
9975;DHT22;5028;50.974;4.968;2023-06-19T08:18:20;21.00;99.90
9975;DHT22;5028;50.974;4.968;2023-06-19T08:20:58;20.80;99.90
9975;DHT22;5028;50.974;4.968;2023-06-19T08:23:27;20.70;99.90
9975;DHT22;5028;50.974;4.968;2023-06-19T08:25:55;20.70;99.90
9975;DHT22;5028;50.974;4.968;2023-06-19T08:28:23;20.90;99.90
9975;DHT22;5028;50.974;4.968;2023-06-19T08:30:52;21.00;99.90
9975;DHT22;5028;50.974;4.968;2023-06-19T08:33:21;21.10;99.90
9975;DHT22;5028;50.974;4.968;2023-06-19T08:35:51;21.20;99.90
9975;DHT22;5028;50.974;4.968;2023-06-19T08:38:19;21.20;99.90
9975;DHT22;5028;50.974;4.968;2023-06-19T08:40:48;21.40;99.90
9975;DHT22;5028;50.974;4.968;2023-06-19T08:43:17;21.70;99.90
9975;DHT22;5028;50.974;4.968;2023-06-19T08:45:54;22.10;99.90
9975;DHT22;5028;50.974;4.968;2023-06-19T08:48:25;22.00;99.90
9975;DHT22;5028;50.974;4.968;2023-06-19T08:50:53;22.00;99.90
9975;DHT22;5028;50.974;4.968;2023-06-19T08:53:23;22.10;99.90
9975;DHT22;5028;50.974;4.968;2023-06-19T08:55:51;22.40;99.90
9975;DHT22;5028;50.974;4.968;2023-06-19T08:58:21;22.50;99.90
9975;DHT22;5028;50.974;4.968;2023-06-19T09:00:50;22.60;99.90
9975;DHT22;5028;50.974;4.968;2023-06-19T09:03:20;22.80;99.90
9975;DHT22;5028;50.974;4.968;2023-06-19T09:05:51;22.60;99.90
9975;DHT22;5028;50.974;4.968;2023-06-19T09:08:25;22.40;99.90
9975;DHT22;5028;50.974;4.968;2023-06-19T09:10:57;22.50;99.90
9975;DHT22;5028;50.974;4.968;2023-06-19T09:13:25;22.90;99.90
9975;DHT22;5028;50.974;4.968;2023-06-19T09:16:00;23.10;99.90
9975;DHT22;5028;50.974;4.968;2023-06-19T09:18:30;23.10;99.90
9975;DHT22;5028;50.974;4.968;2023-06-19T09:21:00;23.40;99.90
9975;DHT22;5028;50.974;4.968;2023-06-19T09:23:29;23.60;99.90
9975;DHT22;5028;50.974;4.968;2023-06-19T09:25:57;23.70;99.90
9975;DHT22;5028;50.974;4.968;2023-06-19T09:28:27;23.60;99.90
9975;DHT22;5028;50.974;4.968;2023-06-19T09:30:57;23.80;99.90
9975;DHT22;5028;50.974;4.968;2023-06-19T09:33:29;23.90;99.90
9975;DHT22;5028;50.974;4.968;2023-06-19T09:36:00;24.10;99.90
9975;DHT22;5028;50.974;4.968;2023-06-19T09:38:30;24.70;99.90
9975;DHT22;5028;50.974;4.968;2023-06-19T09:41:01;25.00;99.90
9975;DHT22;5028;50.974;4.968;2023-06-19T09:43:34;25.20;99.90
9975;DHT22;5028;50.974;4.968;2023-06-19T09:46:04;25.00;99.90
9975;DHT22;5028;50.974;4.968;2023-06-19T09:48:34;25.10;99.90
9975;DHT22;5028;50.974;4.968;2023-06-19T09:51:10;25.40;99.90
9975;DHT22;5028;50.974;4.968;2023-06-19T09:53:40;25.30;99.90
9975;DHT22;5028;50.974;4.968;2023-06-19T09:56:10;25.40;99.90
9975;DHT22;5028;50.974;4.968;2023-06-19T09:58:39;25.80;99.90
9975;DHT22;5028;50.974;4.968;2023-06-19T10:01:09;25.70;99.90
9975;DHT22;5028;50.974;4.968;2023-06-19T10:03:40;25.70;99.90
9975;DHT22;5028;50.974;4.968;2023-06-19T10:06:13;25.70;99.90
9975;DHT22;5028;50.974;4.968;2023-06-19T10:08:44;25.90;99.90
9975;DHT22;5028;50.974;4.968;2023-06-19T10:11:13;26.00;99.90
9975;DHT22;5028;50.974;4.968;2023-06-19T10:13:43;25.90;99.90
9975;DHT22;5028;50.974;4.968;2023-06-19T10:16:21;25.80;99.90
9975;DHT22;5028;50.974;4.968;2023-06-19T10:18:51;25.60;99.90
9975;DHT22;5028;50.974;4.968;2023-06-19T10:21:22;25.50;99.90
9975;DHT22;5028;50.974;4.968;2023-06-19T10:23:54;25.50;99.90
9975;DHT22;5028;50.974;4.968;2023-06-19T10:26:31;25.40;99.90
9975;DHT22;5028;50.974;4.968;2023-06-19T10:29:00;25.50;99.90
9975;DHT22;5028;50.974;4.968;2023-06-19T10:31:31;25.40;99.90
9975;DHT22;5028;50.974;4.968;2023-06-19T10:34:00;26.00;99.90
9975;DHT22;5028;50.974;4.968;2023-06-19T10:36:32;26.40;99.90
9975;DHT22;5028;50.974;4.968;2023-06-19T10:39:01;26.70;99.90
9975;DHT22;5028;50.974;4.968;2023-06-19T10:41:29;27.00;99.90
9975;DHT22;5028;50.974;4.968;2023-06-19T10:44:00;27.00;99.90
9975;DHT22;5028;50.974;4.968;2023-06-19T10:46:30;27.50;99.90
9975;DHT22;5028;50.974;4.968;2023-06-19T10:49:00;27.60;99.90
9975;DHT22;5028;50.974;4.968;2023-06-19T10:51:34;27.70;99.90
9975;DHT22;5028;50.974;4.968;2023-06-19T10:54:04;27.50;99.90
9975;DHT22;5028;50.974;4.968;2023-06-19T10:56:33;28.10;99.90
9975;DHT22;5028;50.974;4.968;2023-06-19T10:59:03;28.50;99.90
9975;DHT22;5028;50.974;4.968;2023-06-19T11:01:34;28.70;99.90
9975;DHT22;5028;50.974;4.968;2023-06-19T11:04:05;28.40;99.90
9975;DHT22;5028;50.974;4.968;2023-06-19T11:06:36;28.50;99.90
9975;DHT22;5028;50.974;4.968;2023-06-19T11:09:06;28.50;99.90
9975;DHT22;5028;50.974;4.968;2023-06-19T11:11:37;28.30;99.90
9975;DHT22;5028;50.974;4.968;2023-06-19T11:14:06;28.70;99.90
9975;DHT22;5028;50.974;4.968;2023-06-19T11:16:39;28.70;99.90
9975;DHT22;5028;50.974;4.968;2023-06-19T11:19:09;28.90;99.90
9975;DHT22;5028;50.974;4.968;2023-06-19T11:21:39;28.70;99.90
9975;DHT22;5028;50.974;4.968;2023-06-19T11:24:11;28.80;99.90
9975;DHT22;5028;50.974;4.968;2023-06-19T11:26:41;28.30;99.90
9975;DHT22;5028;50.974;4.968;2023-06-19T11:29:16;28.30;99.90
9975;DHT22;5028;50.974;4.968;2023-06-19T11:31:45;28.70;99.90
9975;DHT22;5028;50.974;4.968;2023-06-19T11:34:15;28.90;99.90
9975;DHT22;5028;50.974;4.968;2023-06-19T11:36:45;28.90;99.90
9975;DHT22;5028;50.974;4.968;2023-06-19T11:39:15;29.20;99.90
9975;DHT22;5028;50.974;4.968;2023-06-19T11:41:45;29.70;99.90
9975;DHT22;5028;50.974;4.968;2023-06-19T11:44:14;29.70;99.90
9975;DHT22;5028;50.974;4.968;2023-06-19T11:46:44;29.20;99.90
9975;DHT22;5028;50.974;4.968;2023-06-19T11:49:15;28.70;99.90
9975;DHT22;5028;50.974;4.968;2023-06-19T11:51:47;28.90;99.90
9975;DHT22;5028;50.974;4.968;2023-06-19T11:54:15;29.10;99.90
9975;DHT22;5028;50.974;4.968;2023-06-19T11:56:45;29.40;99.90
9975;DHT22;5028;50.974;4.968;2023-06-19T11:59:14;29.40;99.90
9975;DHT22;5028;50.974;4.968;2023-06-19T12:01:43;29.90;99.90
9975;DHT22;5028;50.974;4.968;2023-06-19T12:04:12;30.00;99.90
9975;DHT22;5028;50.974;4.968;2023-06-19T12:06:42;29.90;99.90
9975;DHT22;5028;50.974;4.968;2023-06-19T12:09:13;30.30;99.90
9975;DHT22;5028;50.974;4.968;2023-06-19T12:11:41;30.30;99.90
9975;DHT22;5028;50.974;4.968;2023-06-19T12:14:10;30.50;99.90
9975;DHT22;5028;50.974;4.968;2023-06-19T12:16:40;30.60;98.90
9975;DHT22;5028;50.974;4.968;2023-06-19T12:19:09;30.30;99.00
9975;DHT22;5028;50.974;4.968;2023-06-19T12:21:46;30.10;98.20
9975;DHT22;5028;50.974;4.968;2023-06-19T12:24:16;30.40;98.80
9975;DHT22;5028;50.974;4.968;2023-06-19T12:26:44;30.80;98.40
9975;DHT22;5028;50.974;4.968;2023-06-19T12:29:13;30.50;98.20
9975;DHT22;5028;50.974;4.968;2023-06-19T12:31:43;30.50;97.40
9975;DHT22;5028;50.974;4.968;2023-06-19T12:34:12;30.40;96.10
9975;DHT22;5028;50.974;4.968;2023-06-19T12:36:55;30.10;96.30
9975;DHT22;5028;50.974;4.968;2023-06-19T12:39:27;29.40;96.30
9975;DHT22;5028;50.974;4.968;2023-06-19T12:41:56;29.60;98.20
9975;DHT22;5028;50.974;4.968;2023-06-19T12:44:25;30.40;97.70
9975;DHT22;5028;50.974;4.968;2023-06-19T12:46:54;31.10;97.20
9975;DHT22;5028;50.974;4.968;2023-06-19T12:49:22;31.70;96.70
9975;DHT22;5028;50.974;4.968;2023-06-19T12:51:51;32.10;96.20
9975;DHT22;5028;50.974;4.968;2023-06-19T12:54:19;32.20;96.10
9975;DHT22;5028;50.974;4.968;2023-06-19T12:56:49;32.30;95.30
9975;DHT22;5028;50.974;4.968;2023-06-19T12:59:19;32.20;96.10
9975;DHT22;5028;50.974;4.968;2023-06-19T13:01:47;32.40;95.60
9975;DHT22;5028;50.974;4.968;2023-06-19T13:04:16;32.60;95.40
9975;DHT22;5028;50.974;4.968;2023-06-19T13:06:45;32.90;95.50
9975;DHT22;5028;50.974;4.968;2023-06-19T13:09:14;32.70;94.20
9975;DHT22;5028;50.974;4.968;2023-06-19T13:11:42;32.20;94.50
9975;DHT22;5028;50.974;4.968;2023-06-19T13:14:13;32.30;94.10
9975;DHT22;5028;50.974;4.968;2023-06-19T13:16:41;32.00;94.60
9975;DHT22;5028;50.974;4.968;2023-06-19T13:19:13;31.40;95.30
9975;DHT22;5028;50.974;4.968;2023-06-19T13:21:42;31.90;95.10
9975;DHT22;5028;50.974;4.968;2023-06-19T13:24:11;32.40;94.50
9975;DHT22;5028;50.974;4.968;2023-06-19T13:26:40;32.50;94.20
9975;DHT22;5028;50.974;4.968;2023-06-19T13:29:09;32.50;93.80
9975;DHT22;5028;50.974;4.968;2023-06-19T13:31:39;32.60;94.00
9975;DHT22;5028;50.974;4.968;2023-06-19T13:34:08;32.30;93.40
9975;DHT22;5028;50.974;4.968;2023-06-19T13:36:37;32.00;94.40
9975;DHT22;5028;50.974;4.968;2023-06-19T13:39:07;32.30;93.40
9975;DHT22;5028;50.974;4.968;2023-06-19T13:41:35;32.40;93.20
9975;DHT22;5028;50.974;4.968;2023-06-19T13:44:05;32.50;92.90
9975;DHT22;5028;50.974;4.968;2023-06-19T13:46:33;32.70;93.70
9975;DHT22;5028;50.974;4.968;2023-06-19T13:49:04;33.10;93.60
9975;DHT22;5028;50.974;4.968;2023-06-19T13:51:32;33.10;93.70
9975;DHT22;5028;50.974;4.968;2023-06-19T13:54:01;32.70;92.90
9975;DHT22;5028;50.974;4.968;2023-06-19T13:56:31;32.20;92.90
9975;DHT22;5028;50.974;4.968;2023-06-19T13:59:00;31.90;92.90
9975;DHT22;5028;50.974;4.968;2023-06-19T14:01:30;31.60;93.00
9975;DHT22;5028;50.974;4.968;2023-06-19T14:03:59;31.50;93.60
9975;DHT22;5028;50.974;4.968;2023-06-19T14:06:29;31.10;93.00
9975;DHT22;5028;50.974;4.968;2023-06-19T14:08:57;30.90;93.70
9975;DHT22;5028;50.974;4.968;2023-06-19T14:11:26;30.60;94.10
9975;DHT22;5028;50.974;4.968;2023-06-19T14:13:56;30.40;94.00
9975;DHT22;5028;50.974;4.968;2023-06-19T14:16:25;30.20;94.40
9975;DHT22;5028;50.974;4.968;2023-06-19T14:18:54;30.40;94.70
9975;DHT22;5028;50.974;4.968;2023-06-19T14:21:22;30.50;94.60
9975;DHT22;5028;50.974;4.968;2023-06-19T14:23:53;30.60;94.40
9975;DHT22;5028;50.974;4.968;2023-06-19T14:26:23;30.60;94.50
9975;DHT22;5028;50.974;4.968;2023-06-19T14:28:51;30.60;94.60
9975;DHT22;5028;50.974;4.968;2023-06-19T14:31:24;30.40;94.10
9975;DHT22;5028;50.974;4.968;2023-06-19T14:33:53;29.90;94.10
9975;DHT22;5028;50.974;4.968;2023-06-19T14:36:22;29.60;94.60
9975;DHT22;5028;50.974;4.968;2023-06-19T14:38:51;29.60;95.30
9975;DHT22;5028;50.974;4.968;2023-06-19T14:41:21;29.60;95.50
9975;DHT22;5028;50.974;4.968;2023-06-19T14:43:51;29.90;95.60
9975;DHT22;5028;50.974;4.968;2023-06-19T14:46:19;30.00;95.30
9975;DHT22;5028;50.974;4.968;2023-06-19T14:49:04;30.10;95.10
9975;DHT22;5028;50.974;4.968;2023-06-19T14:51:33;30.20;94.70
9975;DHT22;5028;50.974;4.968;2023-06-19T14:54:02;30.40;95.10
9975;DHT22;5028;50.974;4.968;2023-06-19T14:56:34;30.50;94.80
9975;DHT22;5028;50.974;4.968;2023-06-19T14:59:04;30.40;94.70
9975;DHT22;5028;50.974;4.968;2023-06-19T15:01:36;30.10;94.30
9975;DHT22;5028;50.974;4.968;2023-06-19T15:04:11;29.90;94.40
9975;DHT22;5028;50.974;4.968;2023-06-19T15:06:40;29.70;95.10
9975;DHT22;5028;50.974;4.968;2023-06-19T15:09:09;29.60;95.40
9975;DHT22;5028;50.974;4.968;2023-06-19T15:11:40;29.60;95.60
9975;DHT22;5028;50.974;4.968;2023-06-19T15:14:09;29.60;95.50
9975;DHT22;5028;50.974;4.968;2023-06-19T15:16:38;29.60;95.30
9975;DHT22;5028;50.974;4.968;2023-06-19T15:19:07;29.60;95.60
9975;DHT22;5028;50.974;4.968;2023-06-19T15:21:36;29.40;95.80
9975;DHT22;5028;50.974;4.968;2023-06-19T15:24:07;29.20;95.60
9975;DHT22;5028;50.974;4.968;2023-06-19T15:26:36;28.70;96.00
9975;DHT22;5028;50.974;4.968;2023-06-19T15:29:08;28.30;96.10
9975;DHT22;5028;50.974;4.968;2023-06-19T15:31:36;28.00;96.30
9975;DHT22;5028;50.974;4.968;2023-06-19T15:34:07;27.70;97.00
9975;DHT22;5028;50.974;4.968;2023-06-19T15:36:38;27.90;97.20
9975;DHT22;5028;50.974;4.968;2023-06-19T15:39:07;27.90;96.30
9975;DHT22;5028;50.974;4.968;2023-06-19T15:41:36;27.70;96.80
9975;DHT22;5028;50.974;4.968;2023-06-19T15:44:07;27.70;96.70
9975;DHT22;5028;50.974;4.968;2023-06-19T15:46:35;27.60;97.00
9975;DHT22;5028;50.974;4.968;2023-06-19T15:49:05;27.50;97.30
9975;DHT22;5028;50.974;4.968;2023-06-19T15:51:39;27.40;97.60
9975;DHT22;5028;50.974;4.968;2023-06-19T15:54:08;27.50;97.50
9975;DHT22;5028;50.974;4.968;2023-06-19T15:56:38;27.60;97.50
9975;DHT22;5028;50.974;4.968;2023-06-19T15:59:15;27.70;97.80
9975;DHT22;5028;50.974;4.968;2023-06-19T16:01:45;27.80;97.30
9975;DHT22;5028;50.974;4.968;2023-06-19T16:04:16;27.90;97.50
9975;DHT22;5028;50.974;4.968;2023-06-19T16:06:45;28.00;97.30
9975;DHT22;5028;50.974;4.968;2023-06-19T16:09:14;28.00;97.60
9975;DHT22;5028;50.974;4.968;2023-06-19T16:11:43;28.00;97.10
9975;DHT22;5028;50.974;4.968;2023-06-19T16:14:17;28.00;97.20
9975;DHT22;5028;50.974;4.968;2023-06-19T16:16:47;27.80;97.30
9975;DHT22;5028;50.974;4.968;2023-06-19T16:19:21;28.00;97.90